This is the latest recevied weather packets stored in our database for station/object JQ1YUX-13. If no packets are shown the sender has not sent any weather packets the latest 10 day(s).
| Time | Temp. | Humidity | Pressure | Rain* | Wind** | Luminosity | Snow |
|---|---|---|---|---|---|---|---|
| 1777709585 | 25.56° C | 46% | 1007.2 hPa | 0 mm | - | - | - |
| 1777708686 | 26.11° C | 45% | 1007.1 hPa | 0 mm | - | - | - |
| 1777707784 | 26.11° C | 46% | 1006.9 hPa | 0 mm | - | - | - |
| 1777706884 | 26.11° C | 45% | 1006.6 hPa | 0 mm | - | - | - |
| 1777705985 | 26.67° C | 45% | 1006.3 hPa | 0 mm | - | - | - |
| 1777705085 | 26.67° C | 43% | 1006.3 hPa | 0 mm | - | - | - |
| 1777704184 | 26.67° C | 46% | 1006.1 hPa | 0 mm | - | - | - |
| 1777703284 | 27.22° C | 45% | 1005.9 hPa | 0 mm | - | - | - |
| 1777702385 | 27.78° C | 44% | 1005.6 hPa | 0 mm | - | - | - |
| 1777701486 | 28.33° C | 44% | 1005.4 hPa | 0 mm | - | - | - |
| 1777700584 | 28.89° C | 42% | 1005.3 hPa | 0 mm | - | - | - |
| 1777699685 | 28.33° C | 34% | 1005.2 hPa | 0 mm | - | - | - |
| 1777698784 | 28.33° C | 36% | 1005 hPa | 0 mm | - | - | - |
| 1777697884 | 27.78° C | 34% | 1005 hPa | 0 mm | - | - | - |
| 1777696985 | 27.78° C | 34% | 1004.9 hPa | 0 mm | - | - | - |
| 1777696085 | 27.78° C | 41% | 1004.7 hPa | 0 mm | - | - | - |
| 1777695184 | 27.78° C | 35% | 1004.6 hPa | 0 mm | - | - | - |
| 1777694284 | 27.78° C | 35% | 1004.6 hPa | 0 mm | - | - | - |
| 1777693385 | 27.78° C | 34% | 1004.5 hPa | 0 mm | - | - | - |
| 1777692485 | 28.33° C | 34% | 1004.2 hPa | 0 mm | - | - | - |
| 1777691584 | 27.78° C | 39% | 1004 hPa | 0 mm | - | - | - |
| 1777690684 | 27.22° C | 45% | 1003.9 hPa | 0 mm | - | - | - |
| 1777689785 | 26.67° C | 46% | 1003.8 hPa | 0 mm | - | - | - |
| 1777672686 | 17.78° C | 65% | 1001.2 hPa | 0 mm | - | - | - |
| 1777669086 | 17.78° C | 64% | 999.9 hPa | 0 mm | - | - | - |
* Rain latest hour (hover to see other rain measurements)
** Current wind speed in m/s (hover to see current wind gust speed)